sensor_id;sensor_type;location;lat;lon;timestamp;pressure;altitude;pressure_sealevel;temperature;humidity
80654;BME280;70020;45.524;10.240;2023-05-07T18:47:55;99996.69;;;25.20;53.38
80654;BME280;70020;45.524;10.240;2023-05-07T18:50:20;99997.28;;;25.15;51.38
80654;BME280;70020;45.524;10.240;2023-05-07T18:52:46;100000.13;;;25.14;52.37
80654;BME280;70020;45.524;10.240;2023-05-07T18:55:11;99998.69;;;25.11;52.21
80654;BME280;70020;45.524;10.240;2023-05-07T18:57:37;99993.41;;;25.05;52.25
80654;BME280;70020;45.524;10.240;2023-05-07T19:00:03;99992.78;;;25.02;52.80
80654;BME280;70020;45.524;10.240;2023-05-07T19:02:30;99989.53;;;25.00;52.70
80654;BME280;70020;45.524;10.240;2023-05-07T19:04:56;99989.50;;;24.94;53.11
80654;BME280;70020;45.524;10.240;2023-05-07T19:07:22;99994.63;;;24.89;53.44
80654;BME280;70020;45.524;10.240;2023-05-07T19:09:48;99989.94;;;24.91;54.37
80654;BME280;70020;45.524;10.240;2023-05-07T19:12:14;99995.84;;;24.86;54.53
80654;BME280;70020;45.524;10.240;2023-05-07T19:14:40;100000.47;;;24.78;55.29
80654;BME280;70020;45.524;10.240;2023-05-07T19:17:06;100003.06;;;24.65;54.44
80654;BME280;70020;45.524;10.240;2023-05-07T19:19:32;100003.44;;;24.55;61.44
80654;BME280;70020;45.524;10.240;2023-05-07T19:21:58;100007.66;;;24.30;58.94
80654;BME280;70020;45.524;10.240;2023-05-07T19:24:23;100005.38;;;24.27;60.15
80654;BME280;70020;45.524;10.240;2023-05-07T19:26:49;100011.25;;;23.88;61.96
80654;BME280;70020;45.524;10.240;2023-05-07T19:29:19;100007.97;;;23.86;64.27
80654;BME280;70020;45.524;10.240;2023-05-07T19:31:45;100005.91;;;23.82;61.23
80654;BME280;70020;45.524;10.240;2023-05-07T19:34:11;100007.50;;;23.76;62.72
80654;BME280;70020;45.524;10.240;2023-05-07T19:36:38;100009.81;;;23.86;63.47
80654;BME280;70020;45.524;10.240;2023-05-07T19:39:04;100010.81;;;23.85;63.48
80654;BME280;70020;45.524;10.240;2023-05-07T19:41:30;100021.75;;;23.75;62.66
80654;BME280;70020;45.524;10.240;2023-05-07T19:43:56;100020.91;;;23.75;64.28
80654;BME280;70020;45.524;10.240;2023-05-07T19:46:22;100028.47;;;23.78;66.38
80654;BME280;70020;45.524;10.240;2023-05-07T19:48:48;100031.91;;;23.78;65.01
80654;BME280;70020;45.524;10.240;2023-05-07T19:51:13;100040.63;;;23.72;64.75
80654;BME280;70020;45.524;10.240;2023-05-07T19:53:39;100060.09;;;23.71;66.73
80654;BME280;70020;45.524;10.240;2023-05-07T19:56:05;100068.50;;;23.53;64.47
80654;BME280;70020;45.524;10.240;2023-05-07T19:58:31;100081.22;;;23.43;65.36
80654;BME280;70020;45.524;10.240;2023-05-07T20:00:56;100099.16;;;23.33;62.33
80654;BME280;70020;45.524;10.240;2023-05-07T20:03:22;100120.16;;;23.20;61.58
80654;BME280;70020;45.524;10.240;2023-05-07T20:05:47;100126.63;;;23.18;61.73
80654;BME280;70020;45.524;10.240;2023-05-07T20:08:13;100140.00;;;22.95;63.61
80654;BME280;70020;45.524;10.240;2023-05-07T20:10:39;100162.91;;;22.51;66.10
80654;BME280;70020;45.524;10.240;2023-05-07T20:13:05;100185.69;;;22.29;66.52
80654;BME280;70020;45.524;10.240;2023-05-07T20:15:31;100206.50;;;22.09;67.79
80654;BME280;70020;45.524;10.240;2023-05-07T20:17:57;100213.50;;;21.72;70.27
80654;BME280;70020;45.524;10.240;2023-05-07T20:20:22;100203.44;;;21.22;76.95
80654;BME280;70020;45.524;10.240;2023-05-07T20:22:48;100186.94;;;20.34;78.38
80654;BME280;70020;45.524;10.240;2023-05-07T20:25:14;100182.00;;;20.39;73.38
80654;BME280;70020;45.524;10.240;2023-05-07T20:27:40;100188.72;;;19.85;74.55
80654;BME280;70020;45.524;10.240;2023-05-07T20:30:06;100188.69;;;19.69;72.96
80654;BME280;70020;45.524;10.240;2023-05-07T20:32:32;100177.41;;;19.68;76.50
80654;BME280;70020;45.524;10.240;2023-05-07T20:34:58;100172.25;;;19.43;74.34
80654;BME280;70020;45.524;10.240;2023-05-07T20:37:24;100164.72;;;19.48;74.80
80654;BME280;70020;45.524;10.240;2023-05-07T20:39:51;100165.41;;;19.58;76.36
80654;BME280;70020;45.524;10.240;2023-05-07T20:42:16;100161.63;;;19.60;73.42
80654;BME280;70020;45.524;10.240;2023-05-07T20:44:43;100167.56;;;19.71;72.35
80654;BME280;70020;45.524;10.240;2023-05-07T20:47:09;100165.41;;;19.74;74.39
80654;BME280;70020;45.524;10.240;2023-05-07T20:49:35;100170.31;;;19.85;74.59
80654;BME280;70020;45.524;10.240;2023-05-07T20:52:01;100164.91;;;20.03;74.36
80654;BME280;70020;45.524;10.240;2023-05-07T20:54:26;100166.56;;;20.28;75.81
80654;BME280;70020;45.524;10.240;2023-05-07T20:56:53;100172.31;;;20.40;75.83
80654;BME280;70020;45.524;10.240;2023-05-07T20:59:19;100172.41;;;20.54;76.55
80654;BME280;70020;45.524;10.240;2023-05-07T21:01:45;100182.28;;;20.52;76.71
80654;BME280;70020;45.524;10.240;2023-05-07T21:04:11;100200.53;;;20.54;75.56
80654;BME280;70020;45.524;10.240;2023-05-07T21:06:36;100198.38;;;20.65;75.56
80654;BME280;70020;45.524;10.240;2023-05-07T21:09:02;100197.84;;;20.70;76.31
80654;BME280;70020;45.524;10.240;2023-05-07T21:11:27;100197.34;;;20.66;73.23
80654;BME280;70020;45.524;10.240;2023-05-07T21:13:53;100188.03;;;20.56;72.65
80654;BME280;70020;45.524;10.240;2023-05-07T21:16:19;100181.97;;;20.47;74.63
80654;BME280;70020;45.524;10.240;2023-05-07T21:18:45;100172.97;;;20.42;75.05
80654;BME280;70020;45.524;10.240;2023-05-07T21:21:11;100166.88;;;20.33;75.67
80654;BME280;70020;45.524;10.240;2023-05-07T21:23:38;100178.53;;;20.39;71.24
80654;BME280;70020;45.524;10.240;2023-05-07T21:26:03;100182.66;;;20.41;73.81
80654;BME280;70020;45.524;10.240;2023-05-07T21:28:29;100186.72;;;20.52;74.78
80654;BME280;70020;45.524;10.240;2023-05-07T21:30:55;100189.19;;;20.45;75.16
80654;BME280;70020;45.524;10.240;2023-05-07T21:33:20;100193.97;;;20.42;74.00
80654;BME280;70020;45.524;10.240;2023-05-07T21:35:46;100193.50;;;20.30;70.04
80654;BME280;70020;45.524;10.240;2023-05-07T21:38:12;100197.28;;;20.27;69.20
80654;BME280;70020;45.524;10.240;2023-05-07T21:40:39;100196.13;;;20.22;69.19
80654;BME280;70020;45.524;10.240;2023-05-07T21:43:05;100215.34;;;20.22;68.91
80654;BME280;70020;45.524;10.240;2023-05-07T21:45:31;100212.69;;;20.14;69.22
80654;BME280;70020;45.524;10.240;2023-05-07T21:47:56;100228.94;;;20.10;70.16
80654;BME280;70020;45.524;10.240;2023-05-07T21:50:28;100239.78;;;20.15;70.98
80654;BME280;70020;45.524;10.240;2023-05-07T21:52:54;100229.94;;;20.17;73.33
80654;BME280;70020;45.524;10.240;2023-05-07T21:55:20;100228.59;;;20.21;68.70
80654;BME280;70020;45.524;10.240;2023-05-07T21:57:46;100226.81;;;20.21;70.26
80654;BME280;70020;45.524;10.240;2023-05-07T22:00:12;100232.25;;;20.28;67.80
80654;BME280;70020;45.524;10.240;2023-05-07T22:02:39;100215.84;;;20.34;70.76
80654;BME280;70020;45.524;10.240;2023-05-07T22:05:04;100215.34;;;20.30;72.73
80654;BME280;70020;45.524;10.240;2023-05-07T22:07:30;100210.25;;;20.37;72.26
80654;BME280;70020;45.524;10.240;2023-05-07T22:09:56;100203.84;;;20.31;72.92
80654;BME280;70020;45.524;10.240;2023-05-07T22:12:21;100206.28;;;20.33;73.51
80654;BME280;70020;45.524;10.240;2023-05-07T22:14:47;100209.44;;;20.37;73.56
80654;BME280;70020;45.524;10.240;2023-05-07T22:17:12;100205.47;;;20.32;74.74
80654;BME280;70020;45.524;10.240;2023-05-07T22:19:39;100209.44;;;20.28;71.95
80654;BME280;70020;45.524;10.240;2023-05-07T22:22:05;100214.22;;;20.25;72.48
80654;BME280;70020;45.524;10.240;2023-05-07T22:24:31;100221.75;;;20.28;70.82
80654;BME280;70020;45.524;10.240;2023-05-07T22:26:56;100217.16;;;20.30;72.27
80654;BME280;70020;45.524;10.240;2023-05-07T22:29:22;100224.19;;;20.21;72.51
80654;BME280;70020;45.524;10.240;2023-05-07T22:31:50;100223.06;;;20.16;72.74
80654;BME280;70020;45.524;10.240;2023-05-07T22:34:16;100218.94;;;20.13;71.74
80654;BME280;70020;45.524;10.240;2023-05-07T22:36:42;100232.53;;;20.09;72.20
80654;BME280;70020;45.524;10.240;2023-05-07T22:39:08;100235.34;;;20.07;71.73
80654;BME280;70020;45.524;10.240;2023-05-07T22:41:35;100236.50;;;20.05;71.22
80654;BME280;70020;45.524;10.240;2023-05-07T22:44:01;100244.06;;;20.08;71.56
80654;BME280;70020;45.524;10.240;2023-05-07T22:46:26;100240.13;;;20.04;69.40
80654;BME280;70020;45.524;10.240;2023-05-07T22:48:52;100243.91;;;20.01;70.17
80654;BME280;70020;45.524;10.240;2023-05-07T22:51:24;100249.97;;;19.94;70.19
80654;BME280;70020;45.524;10.240;2023-05-07T22:53:50;100260.81;;;19.99;72.18
80654;BME280;70020;45.524;10.240;2023-05-07T22:56:16;100274.91;;;19.98;73.20
80654;BME280;70020;45.524;10.240;2023-05-07T22:58:42;100282.97;;;19.96;73.55
80654;BME280;70020;45.524;10.240;2023-05-07T23:01:14;100280.66;;;19.93;73.82
80654;BME280;70020;45.524;10.240;2023-05-07T23:03:40;100272.25;;;19.82;75.01
80654;BME280;70020;45.524;10.240;2023-05-07T23:06:06;100284.88;;;19.78;76.25
80654;BME280;70020;45.524;10.240;2023-05-07T23:08:32;100292.13;;;19.84;76.32
80654;BME280;70020;45.524;10.240;2023-05-07T23:10:57;100299.50;;;19.81;76.39
80654;BME280;70020;45.524;10.240;2023-05-07T23:13:23;100294.72;;;19.68;76.04
80654;BME280;70020;45.524;10.240;2023-05-07T23:15:49;100290.22;;;19.52;77.82
80654;BME280;70020;45.524;10.240;2023-05-07T23:18:15;100284.22;;;19.34;78.39
80654;BME280;70020;45.524;10.240;2023-05-07T23:20:40;100280.13;;;19.32;77.68
80654;BME280;70020;45.524;10.240;2023-05-07T23:23:08;100280.28;;;19.30;77.99
80654;BME280;70020;45.524;10.240;2023-05-07T23:25:34;100267.81;;;19.32;75.03
80654;BME280;70020;45.524;10.240;2023-05-07T23:28:00;100265.69;;;19.28;77.39
80654;BME280;70020;45.524;10.240;2023-05-07T23:30:26;100258.13;;;19.25;78.30
80654;BME280;70020;45.524;10.240;2023-05-07T23:32:52;100255.66;;;19.23;77.21
80654;BME280;70020;45.524;10.240;2023-05-07T23:35:18;100245.66;;;19.19;75.97
80654;BME280;70020;45.524;10.240;2023-05-07T23:37:44;100241.38;;;19.18;77.07
80654;BME280;70020;45.524;10.240;2023-05-07T23:40:10;100243.91;;;19.35;77.72
80654;BME280;70020;45.524;10.240;2023-05-07T23:42:36;100239.34;;;19.45;77.65
80654;BME280;70020;45.524;10.240;2023-05-07T23:45:02;100238.69;;;19.43;76.27
80654;BME280;70020;45.524;10.240;2023-05-07T23:47:28;100228.72;;;19.47;77.03
80654;BME280;70020;45.524;10.240;2023-05-07T23:49:54;100221.97;;;19.52;77.23
80654;BME280;70020;45.524;10.240;2023-05-07T23:52:20;100220.19;;;19.53;77.39
80654;BME280;70020;45.524;10.240;2023-05-07T23:54:45;100213.97;;;19.54;77.30
80654;BME280;70020;45.524;10.240;2023-05-07T23:57:11;100209.00;;;19.43;77.17
80654;BME280;70020;45.524;10.240;2023-05-07T23:59:36;100201.91;;;19.35;76.94
